createdAt,value
2022-12-14T00:01:24.906Z,12.45
2022-12-14T00:03:51.900Z,12.73
2022-12-14T00:06:26.847Z,12.48
2022-12-14T00:08:56.318Z,13.25
2022-12-14T00:11:23.264Z,13.65
2022-12-14T00:13:54.840Z,12.68
2022-12-14T00:16:22.975Z,13.45
2022-12-14T00:18:52.389Z,13.23
2022-12-14T00:21:19.748Z,13.73
2022-12-14T00:23:47.909Z,14.25
2022-12-14T00:26:32.078Z,13.25
2022-12-14T00:29:00.690Z,14.02
2022-12-14T00:31:28.054Z,14.38
2022-12-14T00:33:55.509Z,14.30
2022-12-14T00:36:22.473Z,14.38
2022-12-14T00:38:49.025Z,14.15
2022-12-14T00:41:15.788Z,13.80
2022-12-14T00:43:42.530Z,13.45
2022-12-14T00:46:09.148Z,12.50
2022-12-14T00:48:36.114Z,14.00
2022-12-14T00:51:03.091Z,13.60
2022-12-14T00:53:30.296Z,13.57
2022-12-14T00:55:57.049Z,14.27
2022-12-14T00:58:25.096Z,14.15
2022-12-14T01:01:00.354Z,12.75
2022-12-14T01:03:27.410Z,12.63
2022-12-14T01:05:54.571Z,11.52
2022-12-14T01:08:21.588Z,12.07
2022-12-14T01:10:48.185Z,11.55
2022-12-14T01:13:14.825Z,12.20
2022-12-14T01:15:41.804Z,11.77
2022-12-14T01:18:08.537Z,12.32
2022-12-14T01:20:35.134Z,12.73
2022-12-14T01:23:01.643Z,12.50
2022-12-14T01:25:28.457Z,11.75
2022-12-14T01:27:55.037Z,11.93
2022-12-14T01:30:21.792Z,11.30
2022-12-14T01:32:48.410Z,11.90
2022-12-14T01:35:15.042Z,12.32
2022-12-14T01:37:41.618Z,11.70
2022-12-14T01:40:08.806Z,12.00
2022-12-14T01:42:36.886Z,11.20
2022-12-14T01:45:05.401Z,11.27
2022-12-14T01:47:34.806Z,11.98
2022-12-14T01:50:13.685Z,11.88
2022-12-14T01:52:43.920Z,11.93
2022-12-14T01:55:22.348Z,11.68
2022-12-14T01:58:03.431Z,11.57
2022-12-14T02:00:30.552Z,11.93
2022-12-14T02:03:05.235Z,11.35
2022-12-14T02:05:35.679Z,10.77
2022-12-14T02:08:03.396Z,10.82
2022-12-14T02:10:32.405Z,11.18
2022-12-14T02:13:04.362Z,11.07
2022-12-14T02:15:31.937Z,11.93
2022-12-14T02:17:59.509Z,11.80
2022-12-14T02:20:34.964Z,10.85
2022-12-14T02:23:29.611Z,11.07
2022-12-14T02:26:53.822Z,12.02
2022-12-14T02:29:48.049Z,11.02
2022-12-14T02:32:51.415Z,12.15
2022-12-14T02:35:56.745Z,11.25
2022-12-14T02:38:41.661Z,10.73
2022-12-14T02:41:29.687Z,12.05
2022-12-14T02:44:17.436Z,10.65
2022-12-14T02:46:57.991Z,12.00
2022-12-14T02:49:53.735Z,10.93
2022-12-14T02:52:47.306Z,11.13
2022-12-14T02:55:49.033Z,11.90
2022-12-14T02:58:31.213Z,10.52
2022-12-14T03:00:57.918Z,11.43
2022-12-14T03:03:25.048Z,11.77
2022-12-14T03:06:26.328Z,13.50
2022-12-14T03:09:19.073Z,12.02
2022-12-14T03:11:52.549Z,10.95
2022-12-14T03:14:27.435Z,10.95
2022-12-14T03:17:00.611Z,11.18
2022-12-14T03:19:33.419Z,11.48
2022-12-14T03:22:06.010Z,11.30
2022-12-14T03:24:47.523Z,11.27
2022-12-14T03:27:31.475Z,11.57
2022-12-14T03:30:03.160Z,11.20
2022-12-14T03:32:32.352Z,11.45
2022-12-14T03:35:04.406Z,11.65
2022-12-14T03:37:39.768Z,11.13
2022-12-14T03:40:13.130Z,11.25
2022-12-14T03:43:03.555Z,11.38
2022-12-14T03:45:33.278Z,11.68
2022-12-14T03:48:14.694Z,11.18
2022-12-14T03:50:54.669Z,12.00
2022-12-14T03:53:33.009Z,10.90
2022-12-14T03:56:05.413Z,10.80
2022-12-14T03:59:11.681Z,11.43
2022-12-14T04:01:59.266Z,10.93
2022-12-14T04:04:44.341Z,11.13
2022-12-14T04:07:38.627Z,11.18
2022-12-14T04:10:33.832Z,11.05
2022-12-14T04:13:26.678Z,11.35
2022-12-14T04:16:14.395Z,11.00
2022-12-14T04:19:00.298Z,10.68
2022-12-14T04:21:49.501Z,11.38
2022-12-14T04:24:50.481Z,10.50
2022-12-14T04:27:30.367Z,10.43
2022-12-14T04:30:00.938Z,11.00
2022-12-14T04:32:36.039Z,11.18
2022-12-14T04:35:23.772Z,11.43
2022-12-14T04:38:00.662Z,11.13
2022-12-14T04:40:55.612Z,11.20
2022-12-14T04:43:26.816Z,11.77
2022-12-14T04:46:05.023Z,11.30
2022-12-14T04:48:37.246Z,12.00
2022-12-14T04:51:15.323Z,11.27
2022-12-14T04:53:46.377Z,11.77
2022-12-14T04:56:17.253Z,8.25
2022-12-14T04:58:44.255Z,11.02
2022-12-14T05:01:10.947Z,11.68
2022-12-14T05:03:50.385Z,11.82
2022-12-14T05:06:42.108Z,11.70
2022-12-14T05:09:27.182Z,12.70
2022-12-14T05:12:10.736Z,11.57
2022-12-14T05:14:58.139Z,10.93
2022-12-14T05:17:24.746Z,10.70
2022-12-14T05:19:51.424Z,10.90
2022-12-14T05:22:18.516Z,11.63
2022-12-14T05:24:45.037Z,11.65
2022-12-14T05:27:11.580Z,11.57
2022-12-14T05:29:38.218Z,11.15
2022-12-14T05:32:04.969Z,11.27
2022-12-14T05:34:31.515Z,10.98
2022-12-14T05:36:58.298Z,11.20
2022-12-14T05:39:24.977Z,11.45
2022-12-14T05:41:53.311Z,11.77
2022-12-14T05:44:20.116Z,11.27
2022-12-14T05:46:46.664Z,11.15
2022-12-14T05:49:13.319Z,11.50
2022-12-14T05:51:40.792Z,11.68
2022-12-14T05:54:07.392Z,9.30
2022-12-14T05:56:34.202Z,10.13
2022-12-14T05:59:00.865Z,9.73
2022-12-14T06:01:27.545Z,11.40
2022-12-14T06:03:54.515Z,12.15
2022-12-14T06:06:21.465Z,13.43
2022-12-14T06:08:48.319Z,15.77
2022-12-14T06:11:20.023Z,12.73
2022-12-14T06:13:47.687Z,14.07
2022-12-14T06:16:19.908Z,14.00
2022-12-14T06:18:48.916Z,15.27
2022-12-14T06:21:17.463Z,16.10
2022-12-14T06:23:44.713Z,16.60
2022-12-14T06:26:12.813Z,16.52
2022-12-14T06:28:39.759Z,16.95
2022-12-14T06:31:06.917Z,16.90
2022-12-14T06:33:37.800Z,15.85
2022-12-14T06:36:04.556Z,17.88
2022-12-14T06:38:31.202Z,17.08
2022-12-14T06:40:57.796Z,16.90
2022-12-14T06:43:26.538Z,18.10
2022-12-14T06:45:54.089Z,17.25
2022-12-14T06:48:20.744Z,17.58
2022-12-14T06:50:47.484Z,17.13
2022-12-14T06:53:14.394Z,17.90
2022-12-14T06:55:40.928Z,17.88
2022-12-14T06:58:13.790Z,17.48
2022-12-14T07:00:40.435Z,17.35
2022-12-14T07:03:08.283Z,17.55
2022-12-14T07:05:34.940Z,16.38
2022-12-14T07:08:02.031Z,17.80
2022-12-14T07:10:28.796Z,18.08
2022-12-14T07:12:55.506Z,17.10
2022-12-14T07:15:22.067Z,17.38
2022-12-14T07:17:48.672Z,17.08
2022-12-14T07:20:15.285Z,17.55
2022-12-14T07:22:41.867Z,15.40
2022-12-14T07:25:10.279Z,16.63
2022-12-14T07:27:36.829Z,17.05
2022-12-14T07:30:03.649Z,16.98
2022-12-14T07:32:30.259Z,16.50
2022-12-14T07:34:56.820Z,16.10
2022-12-14T07:37:24.238Z,16.02
2022-12-14T07:39:50.901Z,15.88
2022-12-14T07:42:17.515Z,16.10
2022-12-14T07:44:44.301Z,15.80
2022-12-14T07:47:15.137Z,16.90
2022-12-14T07:49:43.190Z,16.20
2022-12-14T07:52:09.893Z,15.38
2022-12-14T07:54:36.784Z,16.63
2022-12-14T07:57:03.428Z,16.75
2022-12-14T07:59:30.074Z,16.38
2022-12-14T08:01:56.732Z,16.42
2022-12-14T08:04:23.495Z,16.98
2022-12-14T08:06:50.266Z,16.70
2022-12-14T08:09:17.578Z,17.63
2022-12-14T08:11:44.187Z,16.92
2022-12-14T08:14:19.725Z,16.65
2022-12-14T08:16:47.936Z,17.27
2022-12-14T08:19:14.972Z,17.52
2022-12-14T08:21:42.491Z,17.95
2022-12-14T08:24:12.643Z,18.85
2022-12-14T08:26:39.995Z,18.17
2022-12-14T08:29:07.166Z,18.58
2022-12-14T08:31:34.085Z,18.73
2022-12-14T08:34:01.699Z,19.40
2022-12-14T08:36:32.678Z,18.95
2022-12-14T08:39:01.518Z,17.63
2022-12-14T08:41:29.072Z,18.13
2022-12-14T08:44:01.052Z,17.92
2022-12-14T08:46:29.696Z,17.92
2022-12-14T08:48:56.782Z,18.48
2022-12-14T08:51:24.876Z,18.13
2022-12-14T08:53:52.381Z,17.83
2022-12-14T08:56:22.928Z,18.92
2022-12-14T08:58:49.770Z,17.00
2022-12-14T09:01:19.578Z,18.15
2022-12-14T09:03:47.073Z,18.10
2022-12-14T09:06:16.494Z,17.50
2022-12-14T09:08:43.095Z,18.20
2022-12-14T09:11:15.115Z,18.02
2022-12-14T09:13:43.098Z,18.38
2022-12-14T09:16:18.499Z,19.10
2022-12-14T09:18:46.776Z,19.17
2022-12-14T09:21:13.666Z,18.65
2022-12-14T09:23:41.419Z,21.55
2022-12-14T09:26:10.346Z,19.70
2022-12-14T09:28:39.007Z,18.17
2022-12-14T09:31:09.916Z,18.15
2022-12-14T09:33:37.137Z,18.43
2022-12-14T09:36:08.912Z,18.40
2022-12-14T09:38:37.787Z,17.88
2022-12-14T09:41:07.993Z,18.92
2022-12-14T09:43:42.246Z,19.20
2022-12-14T09:46:27.290Z,18.00
2022-12-14T09:48:56.250Z,18.33
2022-12-14T09:51:31.697Z,17.63
2022-12-14T09:54:05.620Z,18.67
2022-12-14T09:56:33.948Z,18.27
2022-12-14T09:59:02.674Z,21.83
2022-12-14T10:01:43.866Z,18.98
2022-12-14T10:04:29.778Z,25.33
2022-12-14T10:07:14.344Z,18.40
2022-12-14T10:09:46.243Z,17.05
2022-12-14T10:15:13.597Z,17.05
2022-12-14T10:17:58.461Z,17.92
2022-12-14T10:20:48.484Z,22.25
2022-12-14T10:23:23.036Z,19.85
2022-12-14T10:25:54.424Z,17.42
2022-12-14T10:28:33.340Z,17.35
2022-12-14T10:31:02.249Z,17.65
2022-12-14T10:33:31.053Z,16.88
2022-12-14T10:36:26.888Z,18.27
2022-12-14T10:39:07.558Z,17.90
2022-12-14T10:41:41.167Z,19.17
2022-12-14T10:44:24.637Z,19.30
2022-12-14T10:47:02.765Z,15.88
2022-12-14T10:49:40.159Z,17.25
2022-12-14T10:52:16.852Z,16.70
2022-12-14T10:54:49.540Z,16.25
2022-12-14T10:57:27.094Z,16.58
2022-12-14T11:00:07.890Z,16.88
2022-12-14T11:02:40.276Z,17.40
2022-12-14T11:05:37.149Z,16.23
2022-12-14T11:08:08.514Z,16.65
2022-12-14T11:10:37.068Z,16.58
2022-12-14T11:13:05.810Z,15.77
2022-12-14T11:15:35.364Z,17.15
2022-12-14T11:18:31.099Z,18.00
2022-12-14T11:21:01.844Z,17.08
2022-12-14T11:23:37.385Z,18.40
2022-12-14T11:26:09.888Z,17.33
2022-12-14T11:28:41.307Z,17.67
2022-12-14T11:31:21.220Z,17.35
2022-12-14T11:33:53.184Z,16.67
2022-12-14T11:39:01.811Z,16.50
2022-12-14T11:41:37.386Z,17.23
2022-12-14T11:44:16.109Z,17.35
2022-12-14T11:46:58.057Z,16.42
2022-12-14T11:52:04.756Z,16.70
2022-12-14T11:54:41.681Z,19.52
2022-12-14T11:57:19.190Z,16.88
2022-12-14T11:59:49.341Z,16.17
2022-12-14T12:02:18.941Z,16.55
2022-12-14T12:04:50.789Z,17.30
2022-12-14T12:07:42.604Z,16.30
2022-12-14T12:10:24.516Z,16.92
2022-12-14T12:12:54.714Z,17.10
2022-12-14T12:15:26.899Z,16.38
2022-12-14T12:17:59.216Z,16.63
2022-12-14T12:20:35.562Z,17.20
2022-12-14T12:23:16.873Z,15.77
2022-12-14T12:25:47.216Z,15.93
2022-12-14T12:28:26.381Z,16.85
2022-12-14T12:30:56.604Z,16.67
2022-12-14T12:33:29.151Z,15.73
2022-12-14T12:35:59.943Z,15.75
2022-12-14T12:39:08.679Z,17.70
2022-12-14T12:42:05.516Z,17.38
2022-12-14T12:45:11.346Z,16.60
2022-12-14T12:47:47.553Z,18.58
2022-12-14T12:50:21.714Z,15.50
2022-12-14T12:53:17.671Z,15.77
2022-12-14T12:55:50.400Z,15.13
2022-12-14T12:58:22.740Z,16.13
2022-12-14T13:00:54.664Z,16.27
2022-12-14T13:06:06.123Z,14.65
2022-12-14T13:08:39.271Z,16.38
2022-12-14T13:11:26.053Z,15.30
2022-12-14T13:13:57.743Z,15.80
2022-12-14T13:16:35.102Z,15.52
2022-12-14T13:19:48.342Z,17.13
2022-12-14T13:22:05.899Z,16.02
2022-12-14T13:24:33.846Z,16.25
2022-12-14T13:27:06.216Z,15.55
2022-12-14T13:29:44.054Z,16.85
2022-12-14T13:32:37.560Z,15.57
2022-12-14T13:35:30.352Z,15.20
2022-12-14T13:38:15.529Z,15.73
2022-12-14T13:40:47.993Z,16.08
2022-12-14T13:43:29.418Z,16.83
2022-12-14T13:45:56.312Z,16.38
2022-12-14T13:48:24.425Z,16.77
2022-12-14T13:51:02.263Z,16.75
2022-12-14T13:53:48.493Z,16.45
2022-12-14T13:56:26.512Z,16.70
2022-12-14T13:59:00.487Z,16.60
2022-12-14T14:01:46.154Z,21.33
2022-12-14T14:04:14.112Z,17.17
2022-12-14T14:06:42.749Z,18.73
2022-12-14T14:09:33.427Z,17.55
2022-12-14T14:12:01.796Z,15.70
2022-12-14T14:14:34.390Z,16.73
2022-12-14T14:17:11.379Z,16.75
2022-12-14T14:19:41.430Z,17.48
2022-12-14T14:22:27.572Z,18.42
2022-12-14T14:25:09.385Z,17.02
2022-12-14T14:27:39.367Z,17.63
2022-12-14T14:30:43.181Z,17.70
2022-12-14T14:33:45.651Z,17.75
2022-12-14T14:36:33.412Z,18.65
2022-12-14T14:39:24.456Z,17.55
2022-12-14T14:41:53.585Z,16.70
2022-12-14T14:44:29.608Z,16.85
2022-12-14T14:46:57.000Z,16.95
2022-12-14T14:49:36.632Z,17.85
2022-12-14T14:52:44.628Z,17.88
2022-12-14T14:55:52.201Z,16.35
2022-12-14T14:58:23.888Z,17.00
2022-12-14T15:01:17.618Z,17.85
2022-12-14T15:03:47.195Z,17.02
2022-12-14T15:06:16.977Z,17.08
2022-12-14T15:08:47.812Z,16.55
2022-12-14T15:11:20.440Z,15.90
2022-12-14T15:14:24.609Z,18.45
2022-12-14T15:16:51.202Z,18.95
2022-12-14T15:19:26.531Z,17.50
2022-12-14T15:21:57.574Z,17.83
2022-12-14T15:24:25.439Z,17.37
2022-12-14T15:26:53.047Z,17.58
2022-12-14T15:29:26.503Z,17.10
2022-12-14T15:31:59.863Z,18.60
2022-12-14T15:34:27.571Z,17.17
2022-12-14T15:36:54.839Z,18.30
2022-12-14T15:39:40.185Z,17.95
2022-12-14T15:42:17.290Z,17.75
2022-12-14T15:44:51.951Z,18.63
2022-12-14T15:47:26.889Z,20.38
2022-12-14T15:49:59.756Z,20.88
2022-12-14T15:52:31.133Z,20.02
2022-12-14T15:54:59.538Z,21.35
2022-12-14T15:57:26.344Z,21.40
2022-12-14T15:59:57.645Z,22.73
2022-12-14T16:02:34.173Z,21.52
2022-12-14T16:05:03.315Z,21.70
2022-12-14T16:07:42.972Z,21.50
2022-12-14T16:10:33.291Z,21.13
2022-12-14T16:13:09.158Z,20.02
2022-12-14T16:15:36.127Z,21.58
2022-12-14T16:18:03.607Z,20.05
2022-12-14T16:20:33.209Z,21.23
2022-12-14T16:23:22.238Z,21.80
2022-12-14T16:25:58.215Z,32.30
2022-12-14T16:28:34.246Z,45.88
2022-12-14T16:31:19.774Z,28.95
2022-12-14T16:33:50.118Z,22.50
2022-12-14T16:36:28.147Z,23.65
2022-12-14T16:39:00.179Z,23.92
2022-12-14T16:41:37.005Z,23.13
2022-12-14T16:44:07.384Z,21.85
2022-12-14T16:46:34.128Z,19.95
2022-12-14T16:49:40.722Z,22.08
2022-12-14T16:52:10.064Z,23.05
2022-12-14T16:54:38.095Z,23.23
2022-12-14T16:57:06.238Z,21.85
2022-12-14T16:59:35.918Z,21.65
2022-12-14T17:02:03.214Z,21.75
2022-12-14T17:04:35.318Z,21.42
2022-12-14T17:07:02.549Z,23.08
2022-12-14T17:09:33.349Z,21.92
2022-12-14T17:12:02.519Z,21.60
2022-12-14T17:14:29.128Z,23.48
2022-12-14T17:17:01.035Z,22.77
2022-12-14T17:19:37.342Z,22.60
2022-12-14T17:22:06.552Z,23.55
2022-12-14T17:24:35.905Z,22.23
2022-12-14T17:27:02.620Z,23.08
2022-12-14T17:29:30.169Z,22.25
2022-12-14T17:32:01.092Z,20.88
2022-12-14T17:34:29.599Z,23.60
2022-12-14T17:36:56.463Z,23.00
2022-12-14T17:39:24.800Z,23.25
2022-12-14T17:41:52.049Z,23.85
2022-12-14T17:44:20.627Z,21.65
2022-12-14T17:46:49.957Z,21.65
2022-12-14T17:49:33.928Z,22.15
2022-12-14T17:52:07.120Z,22.13
2022-12-14T17:54:34.060Z,21.95
2022-12-14T17:57:00.903Z,20.92
2022-12-14T17:59:28.097Z,21.55
2022-12-14T18:01:54.705Z,22.52
2022-12-14T18:04:21.383Z,21.23
2022-12-14T18:06:47.977Z,20.92
2022-12-14T18:09:16.103Z,20.70
2022-12-14T18:12:00.529Z,22.05
2022-12-14T18:14:29.210Z,21.67
2022-12-14T18:16:56.194Z,21.08
2022-12-14T18:19:22.746Z,21.02
2022-12-14T18:21:49.292Z,19.75
2022-12-14T18:24:19.075Z,21.17
2022-12-14T18:26:47.979Z,22.50
2022-12-14T18:29:15.748Z,23.13
2022-12-14T18:31:43.226Z,22.50
2022-12-14T18:34:12.035Z,22.25
2022-12-14T18:36:39.194Z,22.52
2022-12-14T18:39:07.250Z,22.65
2022-12-14T18:41:33.879Z,23.00
2022-12-14T18:44:01.294Z,22.25
2022-12-14T18:46:28.182Z,21.73
2022-12-14T18:48:55.041Z,22.55
2022-12-14T18:51:23.803Z,21.20
2022-12-14T18:53:51.231Z,21.88
2022-12-14T18:56:18.846Z,21.67
2022-12-14T18:58:46.482Z,21.70
2022-12-14T19:01:16.095Z,21.85
2022-12-14T19:03:43.726Z,21.25
2022-12-14T19:09:02.324Z,22.92
2022-12-14T19:11:33.212Z,23.25
2022-12-14T19:14:00.115Z,25.90
2022-12-14T19:16:26.917Z,25.27
2022-12-14T19:18:53.580Z,23.80
2022-12-14T19:21:20.146Z,23.75
2022-12-14T19:23:46.947Z,23.45
2022-12-14T19:26:13.540Z,23.85
2022-12-14T19:28:40.181Z,21.40
2022-12-14T19:31:10.325Z,21.90
2022-12-14T19:33:37.191Z,22.48
2022-12-14T19:36:08.110Z,22.17
2022-12-14T19:38:35.809Z,16.67
2022-12-14T19:41:08.243Z,20.63
2022-12-14T19:43:35.409Z,22.60
2022-12-14T19:46:10.323Z,21.35
2022-12-14T19:48:38.173Z,22.95
2022-12-14T19:51:13.140Z,21.92
2022-12-14T19:53:42.633Z,22.75
2022-12-14T19:56:10.005Z,23.00
2022-12-14T19:58:36.899Z,22.58
2022-12-14T20:01:08.253Z,22.70
2022-12-14T20:03:35.486Z,21.80
2022-12-14T20:06:04.400Z,24.50
2022-12-14T20:08:31.753Z,24.48
2022-12-14T20:10:59.000Z,23.70
2022-12-14T20:13:26.921Z,23.85
2022-12-14T20:15:58.304Z,24.38
2022-12-14T20:18:26.237Z,24.60
2022-12-14T20:20:53.242Z,24.35
2022-12-14T20:23:22.136Z,23.00
2022-12-14T20:25:49.516Z,23.60
2022-12-14T20:28:16.302Z,24.33
2022-12-14T20:30:47.430Z,24.85
2022-12-14T20:33:14.471Z,25.10
2022-12-14T20:35:41.052Z,25.77
2022-12-14T20:38:07.656Z,26.25
2022-12-14T20:40:38.634Z,25.27
2022-12-14T20:43:06.648Z,25.38
2022-12-14T20:45:38.460Z,24.90
2022-12-14T20:50:31.864Z,24.27
2022-12-14T20:52:58.440Z,25.20
2022-12-14T20:55:25.013Z,25.48
2022-12-14T20:57:51.578Z,25.20
2022-12-14T21:00:18.825Z,25.85
2022-12-14T21:02:45.552Z,23.92
2022-12-14T21:05:12.333Z,25.45
2022-12-14T21:07:39.056Z,25.45
2022-12-14T21:10:07.127Z,25.65
2022-12-14T21:12:34.476Z,25.45
2022-12-14T21:15:01.442Z,26.65
2022-12-14T21:17:29.675Z,26.55
2022-12-14T21:19:57.265Z,27.67
2022-12-14T21:22:26.739Z,26.08
2022-12-14T21:25:03.542Z,25.90
2022-12-14T21:27:32.788Z,26.50
2022-12-14T21:30:00.513Z,36.00
2022-12-14T21:32:27.879Z,31.80
2022-12-14T21:34:54.529Z,29.63
2022-12-14T21:37:21.987Z,27.83
2022-12-14T21:39:55.086Z,27.02
2022-12-14T21:42:23.900Z,27.58
2022-12-14T21:44:51.922Z,27.20
2022-12-14T21:47:24.329Z,26.83
2022-12-14T21:49:50.930Z,27.65
2022-12-14T21:52:20.378Z,25.42
2022-12-14T21:54:46.987Z,26.35
2022-12-14T21:57:34.866Z,26.67
2022-12-14T22:00:02.086Z,26.85
2022-12-14T22:02:29.153Z,27.05
2022-12-14T22:04:56.362Z,26.58
2022-12-14T22:07:30.740Z,26.48
2022-12-14T22:09:57.624Z,26.02
2022-12-14T22:12:25.305Z,27.35
2022-12-14T22:14:51.982Z,27.75
2022-12-14T22:17:18.847Z,27.83
2022-12-14T22:19:45.382Z,26.52
2022-12-14T22:22:16.087Z,26.27
2022-12-14T22:24:43.309Z,27.52
2022-12-14T22:27:11.527Z,26.40
2022-12-14T22:29:38.320Z,26.88
2022-12-14T22:32:05.615Z,27.40
2022-12-14T22:34:32.208Z,27.35
2022-12-14T22:36:58.765Z,27.10
2022-12-14T22:39:25.349Z,27.35
2022-12-14T22:41:52.004Z,25.40
2022-12-14T22:44:18.534Z,25.52
2022-12-14T22:46:45.203Z,27.23
2022-12-14T22:49:16.508Z,27.15
2022-12-14T22:51:43.329Z,25.45
2022-12-14T22:54:20.891Z,26.40
2022-12-14T22:56:57.198Z,25.35
2022-12-14T22:59:38.765Z,25.92
2022-12-14T23:02:05.703Z,25.38
2022-12-14T23:04:32.424Z,25.42
2022-12-14T23:06:59.086Z,26.25
2022-12-14T23:09:44.464Z,26.42
2022-12-14T23:12:29.615Z,25.67
2022-12-14T23:15:15.139Z,24.42
2022-12-14T23:18:00.188Z,24.48
2022-12-14T23:20:45.437Z,24.05
2022-12-14T23:23:30.548Z,25.52
2022-12-14T23:26:20.510Z,25.23
2022-12-14T23:29:05.307Z,24.75
2022-12-14T23:31:50.113Z,23.98
2022-12-14T23:34:35.136Z,24.27
2022-12-14T23:37:20.751Z,24.08
2022-12-14T23:40:06.667Z,23.13
2022-12-14T23:42:51.882Z,22.52
2022-12-14T23:45:37.423Z,24.65
2022-12-14T23:48:22.684Z,23.02
2022-12-14T23:51:08.056Z,25.13
2022-12-14T23:53:52.832Z,23.70
2022-12-14T23:56:38.167Z,23.25
2022-12-14T23:59:27.929Z,24.17
